Time;durP1;ratioP1;P1;durP2;ratioP2;P2;SDS_P1;SDS_P2;PMS_P1;PMS_P2;Temp;Humidity;BMP_temperature;BMP_pressure;BME280_temperature;BME280_humidity;BME280_pressure;Samples;Min_cycle;Max_cycle;Signal;HPM_P1;HPM_P2
2022/10/01 00:01:02;;;;;;;7.30;1.45;;;;;;;;;;5077951;27;20028;-63
2022/10/01 00:03:29;;;;;;;7.13;1.25;;;;;;;;;;5072127;27;20407;-63
2022/10/01 00:06:02;;;;;;;6.95;1.33;;;;;;;;;;5077713;27;20575;-63
2022/10/01 00:08:29;;;;;;;8.88;2.17;;;;;;;;;;5072259;28;20031;-63
2022/10/01 00:10:55;;;;;;;8.50;2.60;;;;;;;;;;5058459;28;20028;-63
2022/10/01 00:13:22;;;;;;;11.00;3.50;;;;;;;;;;5074936;28;20350;-64
2022/10/01 00:15:48;;;;;;;9.13;2.05;;;;;;;;;;5079914;27;20085;-64
2022/10/01 00:18:14;;;;;;;8.45;1.95;;;;;;;;;;5078792;28;20084;-64
2022/10/01 00:20:42;;;;;;;7.95;1.70;;;;;;;;;;5055016;28;20031;-64
2022/10/01 00:23:08;;;;;;;7.32;1.10;;;;;;;;;;5079853;28;20332;-63
2022/10/01 00:25:35;;;;;;;7.03;1.30;;;;;;;;;;5073042;28;20047;-64
2022/10/01 00:28:01;;;;;;;;;;;;;;;;;;5082118;28;20047;-64
2022/10/01 00:30:27;;;;;;;7.18;1.30;;;;;;;;;;5077946;27;19912;-63
2022/10/01 00:32:54;;;;;;;7.38;1.23;;;;;;;;;;5078779;28;20136;-64
2022/10/01 00:35:21;;;;;;;6.97;1.63;;;;;;;;;;5072477;28;20019;-64
2022/10/01 00:37:49;;;;;;;5.22;1.10;;;;;;;;;;5075204;28;20063;-64
2022/10/01 00:40:16;;;;;;;8.23;1.30;;;;;;;;;;5079358;28;20042;-64
2022/10/01 00:42:42;;;;;;;8.90;1.38;;;;;;;;;;5078574;28;20028;-64
2022/10/01 00:45:12;;;;;;;8.10;1.33;;;;;;;;;;5080435;28;20438;-64
2022/10/01 00:47:42;;;;;;;5.18;1.00;;;;;;;;;;5077978;27;20806;-64
2022/10/01 00:50:18;;;;;;;7.45;1.27;;;;;;;;;;5078392;28;20548;-64
2022/10/01 00:52:46;;;;;;;7.20;1.40;;;;;;;;;;5078481;28;20026;-63
2022/10/01 00:55:15;;;;;;;9.65;1.35;;;;;;;;;;5077386;28;20149;-64
2022/10/01 00:57:41;;;;;;;6.38;1.20;;;;;;;;;;5072395;28;20062;-64
2022/10/01 01:00:09;;;;;;;8.20;1.25;;;;;;;;;;5078573;28;20039;-64
2022/10/01 01:02:35;;;;;;;5.63;1.00;;;;;;;;;;5076899;28;20027;-64
2022/10/01 01:05:02;;;;;;;8.00;1.02;;;;;;;;;;5063997;28;20047;-64
2022/10/01 01:07:29;;;;;;;8.77;1.27;;;;;;;;;;5075640;28;20035;-64
2022/10/01 01:09:55;;;;;;;4.07;0.95;;;;;;;;;;5061541;27;20462;-64
2022/10/01 01:12:27;;;;;;;10.95;1.30;;;;;;;;;;5073357;28;20051;-63
2022/10/01 01:14:56;;;;;;;5.72;1.00;;;;;;;;;;5079932;28;20039;-64
2022/10/01 01:17:25;;;;;;;5.90;1.13;;;;;;;;;;5077415;27;20083;-64
2022/10/01 01:20:10;;;;;;;5.82;1.00;;;;;;;;;;5076400;28;20714;-64
2022/10/01 01:22:38;;;;;;;6.70;0.88;;;;;;;;;;5056889;28;20445;-64
2022/10/01 01:25:34;;;;;;;6.30;1.05;;;;;;;;;;5077048;28;20548;-64
2022/10/01 01:28:15;;;;;;;6.10;1.00;;;;;;;;;;4995167;28;20538;-64
2022/10/01 01:30:42;;;;;;;7.28;1.05;;;;;;;;;;4996173;28;20044;-64
2022/10/01 01:33:14;;;;;;;8.80;1.60;;;;;;;;;;4995003;28;20507;-64
2022/10/01 01:35:44;;;;;;;7.07;0.90;;;;;;;;;;4989959;28;20483;-64
2022/10/01 01:38:13;;;;;;;6.50;0.98;;;;;;;;;;4995865;28;20180;-63
2022/10/01 01:40:40;;;;;;;9.32;1.25;;;;;;;;;;4977539;28;20056;-64
2022/10/01 01:43:08;;;;;;;10.15;1.65;;;;;;;;;;4995817;28;20034;-63
2022/10/01 01:45:37;;;;;;;8.18;1.30;;;;;;;;;;4990893;28;20076;-64
2022/10/01 01:48:03;;;;;;;9.20;1.30;;;;;;;;;;4997472;28;20037;-64
2022/10/01 01:50:33;;;;;;;6.57;1.13;;;;;;;;;;4992900;28;20637;-64
2022/10/01 01:53:01;;;;;;;9.63;1.52;;;;;;;;;;4994455;28;20029;-64
2022/10/01 01:55:29;;;;;;;9.48;1.33;;;;;;;;;;4991864;28;20038;-64
2022/10/01 01:57:56;;;;;;;8.55;1.40;;;;;;;;;;4990080;28;20136;-63
2022/10/01 02:00:22;;;;;;;6.68;1.27;;;;;;;;;;4987407;28;20036;-64
2022/10/01 02:02:51;;;;;;;9.63;1.30;;;;;;;;;;4997040;28;20029;-64
2022/10/01 02:05:22;;;;;;;6.22;1.02;;;;;;;;;;5063834;28;20566;-63
2022/10/01 02:07:51;;;;;;;7.65;1.27;;;;;;;;;;5079256;28;20032;-64
2022/10/01 02:10:35;;;;;;;5.60;1.05;;;;;;;;;;5076849;28;20019;-64
2022/10/01 02:13:23;;;;;;;6.28;1.00;;;;;;;;;;5079172;28;20031;-63
2022/10/01 02:15:51;;;;;;;7.80;1.60;;;;;;;;;;5075242;28;20039;-63
2022/10/01 02:18:28;;;;;;;10.30;1.83;;;;;;;;;;5060384;28;20118;-63
2022/10/01 02:21:00;;;;;;;9.20;1.92;;;;;;;;;;5080109;28;20046;-64
2022/10/01 02:23:28;;;;;;;5.93;1.48;;;;;;;;;;5075808;28;20032;-64
2022/10/01 02:25:59;;;;;;;8.68;1.55;;;;;;;;;;5060752;28;20052;-64
2022/10/01 02:28:25;;;;;;;8.85;1.25;;;;;;;;;;5059992;28;20038;-64
2022/10/01 02:30:53;;;;;;;9.25;1.33;;;;;;;;;;5064663;28;20034;-63
2022/10/01 02:33:23;;;;;;;5.03;0.90;;;;;;;;;;5055510;28;20330;-64
2022/10/01 02:35:50;;;;;;;6.00;1.13;;;;;;;;;;5063049;28;20069;-64
2022/10/01 02:38:18;;;;;;;7.22;1.27;;;;;;;;;;5066548;28;20857;-63
2022/10/01 02:40:46;;;;;;;5.80;1.00;;;;;;;;;;5061732;28;20028;-64
2022/10/01 02:43:15;;;;;;;7.95;1.40;;;;;;;;;;5042703;28;20036;-63
2022/10/01 02:45:43;;;;;;;11.25;1.48;;;;;;;;;;5060078;28;20321;-63
2022/10/01 02:48:10;;;;;;;4.88;0.95;;;;;;;;;;5062829;28;20405;-64
2022/10/01 02:50:42;;;;;;;7.03;1.33;;;;;;;;;;5036045;28;20043;-64
2022/10/01 02:53:16;;;;;;;7.00;1.25;;;;;;;;;;5061254;28;20502;-64
2022/10/01 02:55:42;;;;;;;7.00;1.10;;;;;;;;;;5058264;28;20502;-64
2022/10/01 02:58:08;;;;;;;7.18;0.93;;;;;;;;;;5045573;28;20453;-64
2022/10/01 03:00:34;;;;;;;5.32;0.90;;;;;;;;;;5059866;28;20035;-64
2022/10/01 03:03:01;;;;;;;7.63;1.17;;;;;;;;;;5068337;28;20032;-64
2022/10/01 03:05:27;;;;;;;7.85;1.20;;;;;;;;;;5061986;28;20031;-64
2022/10/01 03:07:53;;;;;;;9.32;1.10;;;;;;;;;;5068116;28;20114;-63
2022/10/01 03:10:19;;;;;;;4.95;0.80;;;;;;;;;;5064400;28;20023;-63
2022/10/01 03:12:45;;;;;;;6.10;1.00;;;;;;;;;;5064414;28;20020;-64
2022/10/01 03:15:15;;;;;;;8.13;1.10;;;;;;;;;;5068279;28;20386;-63
2022/10/01 03:17:41;;;;;;;7.75;1.05;;;;;;;;;;5062004;28;20034;-63
2022/10/01 03:20:08;;;;;;;6.78;1.13;;;;;;;;;;5066327;28;20031;-63
2022/10/01 03:22:35;;;;;;;6.13;1.10;;;;;;;;;;5063955;28;20032;-64
2022/10/01 03:25:01;;;;;;;;;;;;;;;;;;5061734;28;20113;-64
2022/10/01 03:27:27;;;;;;;8.68;1.15;;;;;;;;;;5045864;28;19928;-63
2022/10/01 03:29:53;;;;;;;5.57;1.08;;;;;;;;;;5063747;28;20532;-63
2022/10/01 03:32:19;;;;;;;5.10;1.10;;;;;;;;;;5061623;28;20027;-64
2022/10/01 03:34:45;;;;;;;7.65;1.42;;;;;;;;;;5063744;28;20035;-65
2022/10/01 03:37:11;;;;;;;;;;;;;;;;;;5065226;28;20348;-63
2022/10/01 03:39:37;;;;;;;7.35;1.20;;;;;;;;;;5061898;28;22816;-64
2022/10/01 03:42:04;;;;;;;4.30;0.95;;;;;;;;;;5064087;28;20027;-64
2022/10/01 03:44:30;;;;;;;8.07;1.20;;;;;;;;;;5061121;28;20032;-64
2022/10/01 03:46:57;;;;;;;5.35;0.90;;;;;;;;;;5043823;28;20048;-64
2022/10/01 03:49:23;;;;;;;5.53;1.10;;;;;;;;;;5060694;28;20033;-64
2022/10/01 03:51:49;;;;;;;5.45;1.13;;;;;;;;;;5065695;28;20050;-64
2022/10/01 03:54:16;;;;;;;;;;;;;;;;;;5066859;28;20116;-63
2022/10/01 03:56:42;;;;;;;7.10;1.23;;;;;;;;;;5062894;28;19911;-64
2022/10/01 03:59:12;;;;;;;6.63;1.20;;;;;;;;;;5065516;28;20600;-64
2022/10/01 04:01:38;;;;;;;6.38;1.27;;;;;;;;;;5061297;28;20898;-63
2022/10/01 04:04:05;;;;;;;6.05;1.15;;;;;;;;;;5064669;28;20031;-63
2022/10/01 04:06:31;;;;;;;;;;;;;;;;;;5062901;28;20032;-64
2022/10/01 04:08:57;;;;;;;6.88;1.20;;;;;;;;;;5063333;28;19968;-63
2022/10/01 04:11:23;;;;;;;11.57;2.20;;;;;;;;;;5059690;28;20024;-64
2022/10/01 04:13:49;;;;;;;;;;;;;;;;;;5063585;28;20139;-64
2022/10/01 04:16:15;;;;;;;9.55;1.40;;;;;;;;;;5062870;28;19928;-64
2022/10/01 04:18:42;;;;;;;3.83;0.90;;;;;;;;;;5061643;28;20027;-63
2022/10/01 04:21:08;;;;;;;4.43;1.00;;;;;;;;;;5063648;28;20882;-64
2022/10/01 04:23:34;;;;;;;7.68;1.10;;;;;;;;;;5062011;28;20115;-64
2022/10/01 04:26:01;;;;;;;6.88;1.10;;;;;;;;;;5045870;28;20532;-64
2022/10/01 04:28:27;;;;;;;6.72;1.15;;;;;;;;;;5045796;28;20036;-64
2022/10/01 04:31:23;;;;;;;5.07;0.90;;;;;;;;;;5045761;28;20221;-63
2022/10/01 04:33:40;;;;;;;6.88;1.20;;;;;;;;;;5043198;28;20145;-68
2022/10/01 04:36:06;;;;;;;;;;;;;;;;;;5064147;28;20038;-63
2022/10/01 04:38:32;;;;;;;11.50;1.30;;;;;;;;;;5060693;28;19912;-64
2022/10/01 04:40:58;;;;;;;4.55;1.00;;;;;;;;;;5047959;28;20702;-64
2022/10/01 04:43:24;;;;;;;5.30;0.90;;;;;;;;;;5059913;28;20043;-64
2022/10/01 04:45:50;;;;;;;6.00;1.13;;;;;;;;;;5064493;28;20020;-64
2022/10/01 04:48:17;;;;;;;8.38;1.23;;;;;;;;;;5062022;28;20547;-64
2022/10/01 04:50:44;;;;;;;5.20;0.93;;;;;;;;;;5058225;28;20028;-64
2022/10/01 04:53:10;;;;;;;6.70;1.23;;;;;;;;;;5064526;28;20465;-64
2022/10/01 04:55:36;;;;;;;4.60;0.90;;;;;;;;;;5039927;28;20630;-64
2022/10/01 04:58:02;;;;;;;4.68;0.95;;;;;;;;;;5063070;28;20467;-64
2022/10/01 05:00:28;;;;;;;;;;;;;;;;;;5060622;28;20036;-64
2022/10/01 05:02:55;;;;;;;4.43;0.80;;;;;;;;;;5059108;28;20696;-65
2022/10/01 05:05:26;;;;;;;6.53;0.98;;;;;;;;;;5037450;28;20027;-63
2022/10/01 05:07:52;;;;;;;6.93;1.17;;;;;;;;;;5061116;28;20043;-63
2022/10/01 05:10:19;;;;;;;8.82;1.30;;;;;;;;;;5059535;28;20523;-64
2022/10/01 05:12:46;;;;;;;9.85;1.20;;;;;;;;;;5064237;28;20035;-63
2022/10/01 05:15:13;;;;;;;5.10;1.20;;;;;;;;;;5041356;28;20377;-63
2022/10/01 05:17:39;;;;;;;7.10;1.35;;;;;;;;;;5059216;28;20039;-63
2022/10/01 05:20:06;;;;;;;5.53;1.15;;;;;;;;;;5063504;28;20043;-64
2022/10/01 05:22:32;;;;;;;10.48;1.42;;;;;;;;;;5061819;28;20066;-64
2022/10/01 05:24:59;;;;;;;;;;;;;;;;;;5067017;28;20315;-64
2022/10/01 05:27:30;;;;;;;7.60;1.33;;;;;;;;;;5062037;28;19927;-64
2022/10/01 05:29:56;;;;;;;7.55;1.30;;;;;;;;;;5068146;28;20260;-63
2022/10/01 05:32:22;;;;;;;6.15;1.33;;;;;;;;;;5059813;28;20024;-63
2022/10/01 05:34:48;;;;;;;8.15;1.40;;;;;;;;;;5066425;28;20024;-64
2022/10/01 05:37:15;;;;;;;6.35;1.30;;;;;;;;;;5065031;28;20436;-64
2022/10/01 05:39:41;;;;;;;7.50;1.33;;;;;;;;;;5066486;28;20114;-63
2022/10/01 05:42:07;;;;;;;5.35;1.20;;;;;;;;;;5065817;28;20039;-64
2022/10/01 05:44:44;;;;;;;7.95;1.40;;;;;;;;;;5060977;28;20538;-64
2022/10/01 05:47:12;;;;;;;7.47;1.40;;;;;;;;;;5065990;28;20070;-64
2022/10/01 05:49:41;;;;;;;8.63;1.40;;;;;;;;;;5039189;28;20020;-63
2022/10/01 05:52:08;;;;;;;8.50;1.52;;;;;;;;;;5044719;28;20059;-63
2022/10/01 05:54:35;;;;;;;6.93;1.50;;;;;;;;;;5063914;28;20385;-63
2022/10/01 05:57:01;;;;;;;7.60;1.20;;;;;;;;;;5070533;28;20440;-64
2022/10/01 05:59:27;;;;;;;8.15;1.40;;;;;;;;;;5061994;28;21018;-64
2022/10/01 06:01:53;;;;;;;8.43;1.50;;;;;;;;;;5072871;28;20486;-63
2022/10/01 06:04:19;;;;;;;7.32;1.50;;;;;;;;;;5056480;28;20039;-63
2022/10/01 06:06:45;;;;;;;5.65;1.20;;;;;;;;;;5061558;28;20100;-64
2022/10/01 06:09:11;;;;;;;;;;;;;;;;;;5062619;28;20597;-64
2022/10/01 06:11:37;;;;;;;5.65;1.05;;;;;;;;;;5064505;28;22993;-64
2022/10/01 06:14:03;;;;;;;;;;;;;;;;;;5062660;28;20067;-64
2022/10/01 06:16:30;;;;;;;10.40;1.65;;;;;;;;;;5065718;28;20022;-64
2022/10/01 06:18:56;;;;;;;9.40;1.45;;;;;;;;;;5064893;28;20050;-63
2022/10/01 06:21:26;;;;;;;7.20;1.55;;;;;;;;;;5060239;28;20035;-64
2022/10/01 06:23:53;;;;;;;6.97;1.90;;;;;;;;;;5061552;28;20434;-63
2022/10/01 06:26:19;;;;;;;9.77;1.75;;;;;;;;;;5060189;28;20043;-63
2022/10/01 06:28:48;;;;;;;12.05;1.90;;;;;;;;;;5064112;28;20032;-63
2022/10/01 06:31:14;;;;;;;8.57;2.10;;;;;;;;;;5060112;28;20278;-64
2022/10/01 06:33:40;;;;;;;7.55;2.10;;;;;;;;;;5060079;28;20034;-64
2022/10/01 06:36:06;;;;;;;10.02;2.15;;;;;;;;;;5066095;28;20527;-65
2022/10/01 06:38:32;;;;;;;16.10;2.90;;;;;;;;;;5063159;28;20032;-63
2022/10/01 06:41:00;;;;;;;10.35;2.10;;;;;;;;;;5050455;28;20619;-64
2022/10/01 06:43:27;;;;;;;7.63;1.70;;;;;;;;;;5064236;28;20051;-64
2022/10/01 06:45:54;;;;;;;11.50;1.70;;;;;;;;;;5065494;28;20109;-64
2022/10/01 06:48:20;;;;;;;8.65;1.50;;;;;;;;;;5060245;28;20020;-64
2022/10/01 06:50:47;;;;;;;10.38;1.85;;;;;;;;;;5065531;28;20032;-64
2022/10/01 06:53:14;;;;;;;8.35;1.65;;;;;;;;;;5064395;28;20021;-64
2022/10/01 06:55:40;;;;;;;11.82;2.05;;;;;;;;;;5046198;28;20063;-64
2022/10/01 06:58:08;;;;;;;13.23;2.22;;;;;;;;;;5064994;28;20068;-64
2022/10/01 07:00:35;;;;;;;11.88;1.92;;;;;;;;;;5061098;28;20131;-64
2022/10/01 07:03:01;;;;;;;11.63;1.98;;;;;;;;;;5062433;28;20028;-63
2022/10/01 07:05:28;;;;;;;7.53;1.52;;;;;;;;;;5060365;28;20028;-64
2022/10/01 07:07:54;;;;;;;6.80;1.17;;;;;;;;;;5044727;28;20427;-64
2022/10/01 07:10:21;;;;;;;5.50;1.23;;;;;;;;;;5033656;28;20474;-64
2022/10/01 07:12:48;;;;;;;7.07;1.40;;;;;;;;;;5049855;28;20478;-64
2022/10/01 07:15:15;;;;;;;8.05;1.38;;;;;;;;;;5063274;28;20766;-64
2022/10/01 07:17:47;;;;;;;8.38;1.42;;;;;;;;;;5061972;28;20084;-64
2022/10/01 07:20:16;;;;;;;8.45;1.38;;;;;;;;;;5046782;28;20336;-64
2022/10/01 07:22:43;;;;;;;7.05;1.40;;;;;;;;;;5059936;28;20035;-64
2022/10/01 07:25:09;;;;;;;8.60;1.60;;;;;;;;;;5037786;28;20167;-64
2022/10/01 07:27:35;;;;;;;9.07;1.80;;;;;;;;;;5030135;28;20457;-64
2022/10/01 07:30:03;;;;;;;7.57;1.50;;;;;;;;;;5058684;28;20032;-64
2022/10/01 07:32:30;;;;;;;8.77;2.10;;;;;;;;;;5053273;28;20489;-64
2022/10/01 07:34:56;;;;;;;;;;;;;;;;;;5041109;28;20998;-64
2022/10/01 07:37:23;;;;;;;14.32;2.88;;;;;;;;;;5056719;28;19962;-64
2022/10/01 07:39:48;;;;;;;;;;;;;;;;;;5059911;28;20111;-65
2022/10/01 07:42:15;;;;;;;10.98;2.90;;;;;;;;;;5056862;28;20468;-64
2022/10/01 07:44:42;;;;;;;9.13;2.53;;;;;;;;;;5054267;28;20038;-64
2022/10/01 07:47:08;;;;;;;10.65;2.50;;;;;;;;;;5059137;28;20569;-64
2022/10/01 07:49:34;;;;;;;11.38;2.72;;;;;;;;;;5055928;28;21687;-64
2022/10/01 07:52:00;;;;;;;13.05;2.97;;;;;;;;;;5056869;28;20024;-64
2022/10/01 07:54:28;;;;;;;9.75;2.90;;;;;;;;;;5057106;28;20028;-65
2022/10/01 07:56:55;;;;;;;10.98;3.28;;;;;;;;;;5053821;28;20539;-65
2022/10/01 07:59:21;;;;;;;;;;;;;;;;;;5052703;28;20410;-63
2022/10/01 08:01:50;;;;;;;11.77;2.90;;;;;;;;;;5055100;28;19915;-64
2022/10/01 08:07:01;;;;;;;12.60;2.42;;;;;;;;;;5056688;28;20042;-64
2022/10/01 08:09:27;;;;;;;;;;;;;;;;;;5051696;28;20298;-64
2022/10/01 08:11:53;;;;;;;7.60;1.75;;;;;;;;;;5056226;28;19943;-65
2022/10/01 08:14:19;;;;;;;;;;;;;;;;;;5054722;28;20028;-65
2022/10/01 08:16:46;;;;;;;8.45;1.80;;;;;;;;;;5058858;28;19908;-64
2022/10/01 08:19:13;;;;;;;8.77;2.08;;;;;;;;;;5056664;28;20028;-65
2022/10/01 08:21:40;;;;;;;11.80;2.20;;;;;;;;;;5032470;28;20481;-64
2022/10/01 08:24:06;;;;;;;14.02;2.92;;;;;;;;;;5058047;28;20059;-64
2022/10/01 08:26:32;;;;;;;17.52;3.10;;;;;;;;;;5054590;28;20039;-65
2022/10/01 08:28:58;;;;;;;;;;;;;;;;;;5057223;28;20189;-65
2022/10/01 08:31:24;;;;;;;10.77;2.55;;;;;;;;;;5057587;28;19911;-64
2022/10/01 08:33:51;;;;;;;9.00;2.10;;;;;;;;;;5060076;28;20038;-64
2022/10/01 08:36:18;;;;;;;12.88;3.00;;;;;;;;;;5052165;28;20032;-64
2022/10/01 08:38:45;;;;;;;12.20;4.90;;;;;;;;;;5072950;27;20028;-64
2022/10/01 08:41:17;;;;;;;19.45;8.32;;;;;;;;;;5060059;28;20040;-65
2022/10/01 08:43:44;;;;;;;21.85;11.02;;;;;;;;;;5062302;28;20024;-65
2022/10/01 08:46:14;;;;;;;25.73;12.43;;;;;;;;;;5066138;28;20039;-65
2022/10/01 08:48:59;;;;;;;24.90;11.93;;;;;;;;;;5060835;28;20434;-65
2022/10/01 08:51:34;;;;;;;19.65;9.13;;;;;;;;;;5058896;28;20131;-65
2022/10/01 08:54:07;;;;;;;14.70;5.60;;;;;;;;;;5063960;28;20027;-65
2022/10/01 08:56:36;;;;;;;12.13;3.80;;;;;;;;;;5058544;28;20039;-66
2022/10/01 08:59:13;;;;;;;11.05;2.53;;;;;;;;;;5059125;28;20052;-67
2022/10/01 09:01:39;;;;;;;9.48;1.98;;;;;;;;;;5062000;28;20357;-66
2022/10/01 09:04:05;;;;;;;7.50;1.90;;;;;;;;;;5059845;28;20565;-65
2022/10/01 09:06:32;;;;;;;9.00;1.58;;;;;;;;;;5052722;28;20032;-64
2022/10/01 09:08:58;;;;;;;6.97;1.52;;;;;;;;;;5078151;28;20084;-65
2022/10/01 09:11:31;;;;;;;6.72;1.67;;;;;;;;;;5071996;28;20612;-63
2022/10/01 09:14:10;;;;;;;6.45;1.40;;;;;;;;;;5056488;28;20542;-64
2022/10/01 09:16:54;;;;;;;7.68;1.50;;;;;;;;;;5072720;28;20242;-64
2022/10/01 09:19:24;;;;;;;8.30;1.40;;;;;;;;;;5041743;28;20842;-64
2022/10/01 09:21:58;;;;;;;7.07;1.50;;;;;;;;;;5058649;28;20051;-64
2022/10/01 09:24:27;;;;;;;4.80;1.10;;;;;;;;;;5049337;28;20180;-67
2022/10/01 09:26:54;;;;;;;7.68;1.10;;;;;;;;;;5058997;28;20356;-65
2022/10/01 09:29:26;;;;;;;9.23;1.02;;;;;;;;;;5057568;28;20386;-64
2022/10/01 09:31:53;;;;;;;5.97;1.35;;;;;;;;;;5040154;28;20096;-64
2022/10/01 09:34:39;;;;;;;6.40;0.98;;;;;;;;;;5048902;28;20044;-64
2022/10/01 09:37:24;;;;;;;6.40;0.93;;;;;;;;;;5059426;28;20531;-64
2022/10/01 09:39:50;;;;;;;5.68;1.05;;;;;;;;;;5061499;28;20685;-65
2022/10/01 09:42:17;;;;;;;6.03;1.00;;;;;;;;;;5058459;28;20035;-64
2022/10/01 09:44:46;;;;;;;4.15;0.88;;;;;;;;;;5065477;28;20347;-64
2022/10/01 09:47:16;;;;;;;6.43;0.90;;;;;;;;;;5058881;28;20098;-64
2022/10/01 09:49:44;;;;;;;9.02;1.00;;;;;;;;;;5066510;28;20143;-64
2022/10/01 09:52:13;;;;;;;3.90;0.70;;;;;;;;;;5069538;28;20019;-66
2022/10/01 09:54:46;;;;;;;6.60;0.88;;;;;;;;;;5038923;28;20113;-64
2022/10/01 09:57:36;;;;;;;6.70;1.00;;;;;;;;;;5044706;28;20678;-64
2022/10/01 10:00:11;;;;;;;5.78;0.85;;;;;;;;;;5058894;28;20052;-64
2022/10/01 10:02:41;;;;;;;4.28;0.77;;;;;;;;;;5053511;28;24612;-64
2022/10/01 10:05:09;;;;;;;7.20;1.10;;;;;;;;;;5057890;28;20040;-64
2022/10/01 10:07:38;;;;;;;6.80;0.93;;;;;;;;;;5061945;28;21215;-64
2022/10/01 10:10:08;;;;;;;4.53;0.80;;;;;;;;;;5066585;28;20163;-63
2022/10/01 10:12:35;;;;;;;7.30;1.20;;;;;;;;;;5061065;28;20538;-65
2022/10/01 10:15:09;;;;;;;5.47;0.77;;;;;;;;;;5071402;28;20375;-64
2022/10/01 10:17:36;;;;;;;5.32;1.02;;;;;;;;;;5052145;28;20182;-64
2022/10/01 10:20:08;;;;;;;7.68;1.20;;;;;;;;;;5072047;28;20132;-64
2022/10/01 10:22:35;;;;;;;6.55;0.90;;;;;;;;;;5064954;28;20028;-64
2022/10/01 10:25:10;;;;;;;5.63;1.15;;;;;;;;;;5060566;28;20044;-65
2022/10/01 10:27:36;;;;;;;5.15;0.80;;;;;;;;;;5061658;28;20599;-65
2022/10/01 10:30:04;;;;;;;5.85;1.00;;;;;;;;;;5064015;28;20467;-65
2022/10/01 10:32:31;;;;;;;6.65;1.08;;;;;;;;;;5061887;28;20119;-65
2022/10/01 10:35:03;;;;;;;6.38;1.13;;;;;;;;;;5049999;28;20035;-65
2022/10/01 10:37:30;;;;;;;6.10;0.88;;;;;;;;;;5065541;28;20023;-65
2022/10/01 10:39:57;;;;;;;4.72;0.88;;;;;;;;;;5052580;28;20703;-64
2022/10/01 10:42:24;;;;;;;5.65;0.93;;;;;;;;;;5063826;28;20039;-65
2022/10/01 10:44:52;;;;;;;5.60;0.88;;;;;;;;;;5067631;28;20032;-65
2022/10/01 10:47:20;;;;;;;5.25;0.70;;;;;;;;;;5062388;28;20031;-64
2022/10/01 10:49:46;;;;;;;3.80;0.70;;;;;;;;;;5050492;28;20032;-64
2022/10/01 10:52:28;;;;;;;4.82;0.70;;;;;;;;;;5063032;28;20099;-64
2022/10/01 10:54:55;;;;;;;5.30;0.80;;;;;;;;;;5066320;28;20309;-64
2022/10/01 10:57:28;;;;;;;4.55;0.82;;;;;;;;;;5063901;28;20027;-64
2022/10/01 11:00:03;;;;;;;6.20;0.82;;;;;;;;;;5066193;28;20371;-64
2022/10/01 11:02:31;;;;;;;4.68;0.85;;;;;;;;;;5039068;28;20146;-65
2022/10/01 11:05:02;;;;;;;3.58;0.70;;;;;;;;;;5063110;28;20035;-65
2022/10/01 11:07:29;;;;;;;3.65;0.80;;;;;;;;;;5059583;28;20465;-65
2022/10/01 11:10:02;;;;;;;4.40;0.80;;;;;;;;;;5071390;28;20421;-65
2022/10/01 11:12:35;;;;;;;2.85;0.60;;;;;;;;;;5059093;28;20029;-65
2022/10/01 11:15:01;;;;;;;3.53;0.70;;;;;;;;;;5058507;28;20024;-65
2022/10/01 11:17:44;;;;;;;3.42;0.68;;;;;;;;;;5068262;28;20056;-64
2022/10/01 11:20:32;;;;;;;2.65;0.80;;;;;;;;;;5066125;28;20545;-64
2022/10/01 11:23:22;;;;;;;4.68;0.80;;;;;;;;;;5059592;28;20032;-65
2022/10/01 11:26:11;;;;;;;3.10;0.50;;;;;;;;;;5064409;28;20063;-64
2022/10/01 11:28:43;;;;;;;3.20;0.70;;;;;;;;;;5040098;28;23135;-64
2022/10/01 11:31:14;;;;;;;4.68;0.90;;;;;;;;;;5059209;28;20036;-64
2022/10/01 11:33:43;;;;;;;5.85;0.90;;;;;;;;;;5045627;28;21198;-65
2022/10/01 11:36:18;;;;;;;6.45;1.15;;;;;;;;;;5067887;28;20036;-64
2022/10/01 11:38:47;;;;;;;5.33;1.00;;;;;;;;;;5067701;28;20539;-65
2022/10/01 11:41:22;;;;;;;5.00;0.88;;;;;;;;;;5058543;28;20020;-64
2022/10/01 11:43:53;;;;;;;5.78;0.80;;;;;;;;;;5061839;28;20065;-64
2022/10/01 11:46:27;;;;;;;5.63;1.08;;;;;;;;;;5061589;28;20016;-64
2022/10/01 11:49:01;;;;;;;4.97;0.93;;;;;;;;;;5067196;28;20032;-67
2022/10/01 11:51:32;;;;;;;5.60;1.10;;;;;;;;;;5063273;28;20024;-65
2022/10/01 11:54:01;;;;;;;4.75;0.80;;;;;;;;;;5065629;28;20088;-65
2022/10/01 11:59:14;;;;;;;4.50;0.98;;;;;;;;;;5062671;28;20040;-64
2022/10/01 12:01:53;;;;;;;6.75;1.05;;;;;;;;;;5042215;28;20032;-65
2022/10/01 12:04:20;;;;;;;4.53;0.88;;;;;;;;;;5059924;28;20132;-64
2022/10/01 12:07:02;;;;;;;3.92;0.82;;;;;;;;;;5066643;28;20032;-65
2022/10/01 12:09:31;;;;;;;4.45;0.80;;;;;;;;;;5061404;28;20050;-65
2022/10/01 12:12:05;;;;;;;6.68;0.70;;;;;;;;;;5063324;28;20024;-64
2022/10/01 12:14:43;;;;;;;4.85;0.82;;;;;;;;;;5040587;28;20120;-66
2022/10/01 12:17:19;;;;;;;4.40;0.98;;;;;;;;;;5064777;28;20020;-64
2022/10/01 12:19:49;;;;;;;5.45;0.82;;;;;;;;;;5062713;28;20167;-65
2022/10/01 12:22:35;;;;;;;3.10;0.70;;;;;;;;;;5049319;28;20028;-66
2022/10/01 12:25:01;;;;;;;;;;;;;;;;;;5071064;28;20071;-65
2022/10/01 12:27:33;;;;;;;6.75;0.77;;;;;;;;;;5058860;28;20778;-65
2022/10/01 12:30:02;;;;;;;4.70;0.88;;;;;;;;;;5068232;28;20554;-65
2022/10/01 12:32:41;;;;;;;1.77;0.50;;;;;;;;;;5060875;28;20727;-65
2022/10/01 12:35:16;;;;;;;3.42;0.60;;;;;;;;;;5038986;28;20668;-65
2022/10/01 12:38:00;;;;;;;4.05;0.85;;;;;;;;;;5056062;28;20038;-65
2022/10/01 12:40:30;;;;;;;2.35;0.50;;;;;;;;;;5042412;28;20100;-65
2022/10/01 12:42:56;;;;;;;5.43;0.98;;;;;;;;;;5066394;28;20089;-64
2022/10/01 12:45:22;;;;;;;4.93;1.42;;;;;;;;;;5061142;28;20124;-64
2022/10/01 12:48:27;;;;;;;4.57;0.70;;;;;;;;;;5059345;28;20075;-65
2022/10/01 12:50:59;;;;;;;2.75;0.50;;;;;;;;;;4980902;28;20290;-65
2022/10/01 12:53:44;;;;;;;4.18;0.70;;;;;;;;;;4980150;28;20180;-65
2022/10/01 12:56:16;;;;;;;5.00;1.00;;;;;;;;;;4983406;28;20049;-64
2022/10/01 12:59:05;;;;;;;6.70;1.20;;;;;;;;;;4978315;28;20030;-65
2022/10/01 13:01:43;;;;;;;5.75;1.05;;;;;;;;;;4973993;28;20188;-64
2022/10/01 13:04:24;;;;;;;3.70;0.85;;;;;;;;;;4976165;28;20037;-66
2022/10/01 13:07:06;;;;;;;3.58;0.60;;;;;;;;;;4959902;28;20038;-65
2022/10/01 13:09:46;;;;;;;3.08;0.60;;;;;;;;;;4976099;28;20072;-65
2022/10/01 13:12:38;;;;;;;8.00;0.95;;;;;;;;;;4976302;28;20041;-64
2022/10/01 13:15:05;;;;;;;5.03;0.73;;;;;;;;;;4942312;28;20042;-66
2022/10/01 13:17:45;;;;;;;4.10;0.80;;;;;;;;;;4942702;28;20093;-65
2022/10/01 13:20:30;;;;;;;4.70;0.85;;;;;;;;;;4942699;28;20601;-65
2022/10/01 13:23:09;;;;;;;5.10;0.60;;;;;;;;;;4998182;28;20455;-65
2022/10/01 13:25:43;;;;;;;2.72;0.50;;;;;;;;;;4999307;28;20045;-65
2022/10/01 13:28:19;;;;;;;4.07;0.60;;;;;;;;;;5013714;28;20498;-65
2022/10/01 13:30:57;;;;;;;3.88;0.80;;;;;;;;;;5015246;28;20119;-65
2022/10/01 13:33:28;;;;;;;6.28;0.90;;;;;;;;;;4985041;28;20696;-65
2022/10/01 13:36:01;;;;;;;2.40;0.70;;;;;;;;;;5009681;28;20025;-65
2022/10/01 13:38:41;;;;;;;5.10;0.70;;;;;;;;;;5002853;28;20051;-65
2022/10/01 13:41:16;;;;;;;4.78;0.80;;;;;;;;;;5009157;28;20048;-65
2022/10/01 13:43:55;;;;;;;6.25;0.80;;;;;;;;;;5010780;28;20036;-65
2022/10/01 13:46:23;;;;;;;4.53;0.70;;;;;;;;;;5008188;28;20041;-64
2022/10/01 13:48:52;;;;;;;3.95;0.60;;;;;;;;;;5008924;28;20045;-65
2022/10/01 13:51:20;;;;;;;4.40;0.70;;;;;;;;;;5021399;28;20039;-65
2022/10/01 13:53:51;;;;;;;4.97;0.80;;;;;;;;;;5063661;28;20024;-65
2022/10/01 13:56:36;;;;;;;3.78;0.70;;;;;;;;;;5069468;28;20609;-65
2022/10/01 13:59:10;;;;;;;3.30;0.80;;;;;;;;;;5071771;28;20294;-66
2022/10/01 14:01:38;;;;;;;3.30;0.68;;;;;;;;;;5068641;28;20134;-65
2022/10/01 14:04:16;;;;;;;4.32;0.55;;;;;;;;;;5047388;28;20056;-64
2022/10/01 14:06:50;;;;;;;3.42;0.60;;;;;;;;;;5073677;28;20057;-65
2022/10/01 14:09:19;;;;;;;6.00;0.70;;;;;;;;;;5075199;28;20501;-66
2022/10/01 14:17:25;;;;;;;2.92;0.50;;;;;;;;;;5064903;28;20049;-67
2022/10/01 14:19:52;;;;;;;4.30;0.60;;;;;;;;;;5072051;28;20072;-65
2022/10/01 14:22:34;;;;;;;3.17;0.65;;;;;;;;;;5053644;28;20051;-64
2022/10/01 14:25:14;;;;;;;2.50;0.60;;;;;;;;;;5072929;28;20052;-65
2022/10/01 14:27:55;;;;;;;3.92;0.60;;;;;;;;;;5070606;28;20091;-65
2022/10/01 14:30:28;;;;;;;6.07;0.70;;;;;;;;;;5063760;28;20469;-65
2022/10/01 14:33:11;;;;;;;4.60;0.47;;;;;;;;;;5073748;28;20473;-65
2022/10/01 14:35:38;;;;;;;5.03;0.70;;;;;;;;;;5057013;28;20131;-65
2022/10/01 14:38:13;;;;;;;3.90;0.60;;;;;;;;;;5067834;28;20046;-65
2022/10/01 14:40:50;;;;;;;3.90;0.63;;;;;;;;;;5057246;28;20153;-65
2022/10/01 14:43:21;;;;;;;3.45;0.68;;;;;;;;;;5060113;28;20128;-66
2022/10/01 14:46:03;;;;;;;2.05;0.50;;;;;;;;;;5066432;28;20031;-64
2022/10/01 14:48:31;;;;;;;4.30;0.60;;;;;;;;;;5054620;28;20107;-65
2022/10/01 14:50:58;;;;;;;1.75;0.50;;;;;;;;;;5065521;28;20088;-65
2022/10/01 14:53:29;;;;;;;2.50;0.52;;;;;;;;;;5036256;28;20129;-64
2022/10/01 14:55:59;;;;;;;3.20;0.70;;;;;;;;;;5077419;28;20032;-64
2022/10/01 14:58:32;;;;;;;3.67;0.90;;;;;;;;;;5072113;28;20035;-65
2022/10/01 15:01:06;;;;;;;5.35;1.20;;;;;;;;;;5067914;27;20800;-65
2022/10/01 15:03:44;;;;;;;3.03;0.40;;;;;;;;;;5070771;27;20442;-67
2022/10/01 15:06:12;;;;;;;2.22;0.60;;;;;;;;;;5059608;28;20032;-66
2022/10/01 15:08:39;;;;;;;2.92;0.60;;;;;;;;;;5061608;28;22130;-66
2022/10/01 15:11:14;;;;;;;3.30;0.50;;;;;;;;;;5073711;27;20114;-64
2022/10/01 15:13:41;;;;;;;5.47;1.17;;;;;;;;;;5051355;28;20711;-64